createdAt,value
2023-02-08T00:03:43.208Z,31.23
2023-02-08T00:08:46.317Z,31.47
2023-02-08T00:13:48.793Z,40.27
2023-02-08T00:18:51.327Z,49.93
2023-02-08T00:23:53.795Z,42.37
2023-02-08T00:28:56.184Z,30.93
2023-02-08T00:33:58.570Z,27.70
2023-02-08T00:39:02.164Z,30.17
2023-02-08T00:44:04.762Z,33.93
2023-02-08T00:49:07.289Z,30.97
2023-02-08T00:54:14.840Z,29.77
2023-02-08T00:59:17.326Z,31.70
2023-02-08T01:04:20.735Z,34.67
2023-02-08T01:09:23.316Z,32.60
2023-02-08T01:14:26.038Z,31.10
2023-02-08T01:19:28.469Z,30.37
2023-02-08T01:24:30.890Z,31.53
2023-02-08T01:29:33.332Z,31.93
2023-02-08T01:34:35.861Z,29.93
2023-02-08T01:39:40.036Z,29.93
2023-02-08T01:45:16.442Z,29.43
2023-02-08T01:50:21.689Z,28.27
2023-02-08T01:55:38.903Z,31.30
2023-02-08T02:00:42.245Z,31.83
2023-02-08T02:05:56.144Z,33.17
2023-02-08T02:10:58.761Z,32.77
2023-02-08T02:16:01.183Z,29.33
2023-02-08T02:21:21.162Z,30.83
2023-02-08T02:26:36.225Z,29.93
2023-02-08T02:32:00.693Z,27.93
2023-02-08T02:37:11.889Z,29.93
2023-02-08T02:42:56.461Z,29.23
2023-02-08T02:48:20.326Z,26.13
2023-02-08T02:53:54.296Z,26.87
2023-02-08T02:59:02.602Z,26.10
2023-02-08T03:04:38.606Z,25.73
2023-02-08T03:10:20.772Z,26.40
2023-02-08T03:15:47.979Z,26.60
2023-02-08T03:20:53.357Z,29.87
2023-02-08T03:26:03.045Z,27.60
2023-02-08T03:31:17.609Z,27.07
2023-02-08T03:36:39.408Z,28.57
2023-02-08T03:41:46.355Z,29.07
2023-02-08T03:46:56.507Z,29.07
2023-02-08T03:52:02.492Z,28.40
2023-02-08T03:57:29.709Z,28.33
2023-02-08T04:02:37.758Z,28.53
2023-02-08T04:07:40.539Z,27.40
2023-02-08T04:12:43.857Z,28.73
2023-02-08T04:17:46.368Z,28.50
2023-02-08T04:22:48.964Z,29.97
2023-02-08T04:27:51.426Z,28.23
2023-02-08T04:32:53.862Z,28.43
2023-02-08T04:37:56.356Z,26.87
2023-02-08T04:42:58.811Z,30.27
2023-02-08T04:48:01.860Z,26.83
2023-02-08T04:53:04.371Z,27.47
2023-02-08T04:58:06.953Z,28.47
2023-02-08T05:03:10.009Z,27.93
2023-02-08T05:08:12.861Z,26.10
2023-02-08T05:13:15.267Z,26.80
2023-02-08T05:18:17.684Z,27.23
2023-02-08T05:23:20.112Z,27.47
2023-02-08T05:28:22.597Z,28.87
2023-02-08T05:33:25.090Z,28.00
2023-02-08T05:38:27.639Z,29.07
2023-02-08T05:43:30.101Z,29.50
2023-02-08T05:48:32.848Z,29.63
2023-02-08T05:53:35.365Z,28.90
2023-02-08T05:58:37.936Z,29.37
2023-02-08T06:03:40.848Z,28.33
2023-02-08T06:08:43.701Z,25.03
2023-02-08T06:13:47.048Z,24.67
2023-02-08T06:18:49.485Z,38.20
2023-02-08T06:23:51.971Z,31.87
2023-02-08T06:28:54.404Z,22.67
2023-02-08T06:33:56.832Z,21.13
2023-02-08T06:38:59.477Z,26.87
2023-02-08T06:44:02.633Z,21.53
2023-02-08T06:49:05.067Z,21.43
2023-02-08T06:54:07.527Z,16.50
2023-02-08T06:59:10.229Z,15.93
2023-02-08T07:04:12.652Z,16.77
2023-02-08T07:09:15.532Z,33.73
2023-02-08T07:14:18.138Z,14.17
2023-02-08T07:19:20.609Z,16.13
2023-02-08T07:24:23.779Z,14.60
2023-02-08T07:29:26.211Z,14.93
2023-02-08T07:34:34.584Z,11.73
2023-02-08T07:39:37.027Z,15.10
2023-02-08T07:44:39.694Z,15.67
2023-02-08T07:49:42.131Z,19.03
2023-02-08T07:54:44.593Z,12.97
2023-02-08T07:59:47.752Z,16.27
2023-02-08T08:04:50.165Z,10.90
2023-02-08T08:09:52.691Z,15.57
2023-02-08T08:14:55.173Z,16.23
2023-02-08T08:19:58.742Z,14.13
2023-02-08T08:25:01.144Z,17.80
2023-02-08T08:30:05.970Z,13.00
2023-02-08T08:35:09.378Z,14.27
2023-02-08T08:40:12.551Z,17.80
2023-02-08T08:45:16.080Z,15.07
2023-02-08T08:50:18.766Z,15.07
2023-02-08T08:55:21.168Z,13.63
2023-02-08T09:00:23.714Z,14.23
2023-02-08T09:05:26.115Z,15.33
2023-02-08T09:10:30.826Z,12.87
2023-02-08T09:15:33.211Z,11.87
2023-02-08T09:20:38.933Z,12.87
2023-02-08T09:25:41.491Z,18.47
2023-02-08T09:30:45.828Z,15.13
2023-02-08T09:35:49.636Z,16.00
2023-02-08T09:41:29.182Z,14.33
2023-02-08T09:46:36.038Z,13.77
2023-02-08T09:52:05.836Z,14.23
2023-02-08T09:57:18.027Z,12.53
2023-02-08T10:02:32.176Z,14.93
2023-02-08T10:07:35.769Z,14.03
2023-02-08T10:12:50.314Z,13.77
2023-02-08T10:18:11.861Z,15.30
2023-02-08T10:23:42.458Z,15.77
2023-02-08T10:29:22.612Z,16.63
2023-02-08T10:34:46.126Z,15.17
2023-02-08T10:39:50.813Z,14.53
2023-02-08T10:44:58.959Z,18.37
2023-02-08T10:50:23.093Z,17.93
2023-02-08T10:55:25.698Z,12.67
2023-02-08T11:00:32.010Z,12.87
2023-02-08T11:05:37.002Z,18.07
2023-02-08T11:10:40.980Z,12.13
2023-02-08T11:16:02.034Z,13.87
2023-02-08T11:21:20.884Z,14.20
2023-02-08T11:26:35.089Z,14.20
2023-02-08T11:31:40.841Z,14.17
2023-02-08T11:36:49.613Z,14.30
2023-02-08T11:41:56.263Z,16.03
2023-02-08T11:47:02.321Z,18.43
2023-02-08T11:52:07.497Z,24.53
2023-02-08T11:57:22.222Z,23.93
2023-02-08T12:02:50.822Z,25.73
2023-02-08T12:08:42.932Z,22.03
2023-02-08T12:13:56.668Z,20.87
2023-02-08T12:19:17.674Z,31.80
2023-02-08T12:24:26.856Z,21.70
2023-02-08T12:30:08.529Z,19.77
2023-02-08T12:35:43.275Z,23.03
2023-02-08T12:40:50.868Z,39.73
2023-02-08T12:46:00.690Z,91.90
2023-02-08T12:51:40.372Z,70.10
2023-02-08T12:57:00.296Z,28.13
2023-02-08T13:02:15.102Z,36.37
2023-02-08T13:07:33.005Z,48.00
2023-02-08T13:12:51.725Z,30.50
2023-02-08T13:18:17.463Z,28.20
2023-02-08T13:23:27.832Z,42.70
2023-02-08T13:28:30.909Z,31.17
2023-02-08T13:34:00.832Z,28.57
2023-02-08T13:39:07.795Z,28.97
2023-02-08T13:44:20.975Z,28.20
2023-02-08T13:49:54.692Z,31.17
2023-02-08T13:55:35.966Z,40.70
2023-02-08T14:00:59.151Z,30.40
2023-02-08T14:06:24.139Z,30.27
2023-02-08T14:11:45.578Z,38.53
2023-02-08T14:17:09.550Z,27.93
2023-02-08T14:22:11.877Z,26.00
2023-02-08T14:27:32.976Z,36.13
2023-02-08T14:32:41.091Z,40.93
2023-02-08T14:37:44.468Z,36.77
2023-02-08T14:42:54.285Z,37.03
2023-02-08T14:48:22.102Z,33.87
2023-02-08T14:53:31.084Z,32.40
2023-02-08T14:58:46.624Z,34.63
2023-02-08T15:03:53.300Z,34.37
2023-02-08T15:08:55.903Z,39.07
2023-02-08T15:14:01.874Z,32.53
2023-02-08T15:19:07.415Z,42.30
2023-02-08T15:24:19.701Z,36.40
2023-02-08T15:29:42.893Z,286.97
2023-02-08T15:34:53.755Z,53.83
2023-02-08T15:39:57.837Z,47.03
2023-02-08T15:45:02.738Z,37.60
2023-02-08T15:50:07.855Z,40.20
2023-02-08T15:55:16.799Z,54.10
2023-02-08T16:00:26.620Z,60.37
2023-02-08T16:05:31.838Z,99.97
2023-02-08T16:10:36.859Z,67.77
2023-02-08T16:15:43.222Z,122.90
2023-02-08T16:20:46.483Z,113.47
2023-02-08T16:25:49.857Z,256.03
2023-02-08T16:30:52.934Z,157.20
2023-02-08T16:36:02.144Z,136.10
2023-02-08T16:41:13.127Z,110.13
2023-02-08T16:46:15.659Z,72.87
2023-02-08T16:51:26.103Z,63.33
2023-02-08T16:56:28.785Z,53.07
2023-02-08T17:01:31.913Z,71.87
2023-02-08T17:06:37.067Z,90.03
2023-02-08T17:11:40.742Z,89.87
2023-02-08T17:16:43.947Z,70.63
2023-02-08T17:21:46.339Z,53.03
2023-02-08T17:26:48.783Z,64.10
2023-02-08T17:31:51.582Z,85.23
2023-02-08T17:36:54.035Z,88.50
2023-02-08T17:41:56.546Z,100.73
2023-02-08T17:46:58.929Z,100.33
2023-02-08T17:52:01.327Z,107.83
2023-02-08T17:57:03.806Z,109.70
2023-02-08T18:02:06.664Z,110.83
2023-02-08T18:07:09.117Z,110.53
2023-02-08T18:12:11.667Z,118.37
2023-02-08T18:17:14.040Z,116.67
2023-02-08T18:22:16.907Z,131.97
2023-02-08T18:27:19.329Z,130.57
2023-02-08T18:32:22.592Z,132.00
2023-02-08T18:37:25.131Z,114.40
2023-02-08T18:42:27.649Z,120.47
2023-02-08T18:47:30.126Z,116.17
2023-02-08T18:52:33.937Z,88.63
2023-02-08T18:57:38.938Z,83.73
2023-02-08T19:02:43.574Z,77.87
2023-02-08T19:07:45.903Z,86.50
2023-02-08T19:12:48.249Z,115.27
2023-02-08T19:17:50.604Z,91.90
2023-02-08T19:22:53.041Z,169.00
2023-02-08T19:27:55.457Z,81.47
2023-02-08T19:32:58.470Z,75.53
2023-02-08T19:38:00.949Z,101.40
2023-02-08T19:43:03.418Z,83.10
2023-02-08T19:48:06.024Z,66.57
2023-02-08T19:53:08.745Z,62.93
2023-02-08T19:58:12.742Z,57.83
2023-02-08T20:03:21.442Z,57.07
2023-02-08T20:08:27.383Z,62.13
2023-02-08T20:13:29.980Z,126.90
2023-02-08T20:18:32.432Z,505.20
2023-02-08T20:23:35.712Z,405.13
2023-02-08T20:28:41.934Z,353.87
2023-02-08T20:33:45.513Z,437.90
2023-02-08T20:38:49.175Z,258.17
2023-02-08T20:43:52.752Z,195.37
2023-02-08T20:48:56.809Z,160.60
2023-02-08T20:54:00.104Z,120.83
2023-02-08T20:59:10.301Z,136.03
2023-02-08T21:04:13.233Z,113.47
2023-02-08T21:09:17.779Z,134.20
2023-02-08T21:14:23.406Z,121.20
2023-02-08T21:19:28.425Z,123.67
2023-02-08T21:24:30.921Z,130.07
2023-02-08T21:29:33.393Z,130.30
2023-02-08T21:34:36.160Z,125.50
2023-02-08T21:39:38.665Z,120.50
2023-02-08T21:44:41.360Z,106.73
2023-02-08T21:50:02.245Z,96.80
2023-02-08T21:55:04.960Z,95.50
2023-02-08T22:00:10.553Z,95.40
2023-02-08T22:05:17.633Z,90.03
2023-02-08T22:10:22.908Z,89.87
2023-02-08T22:15:28.516Z,92.90
2023-02-08T22:20:31.619Z,85.90
2023-02-08T22:25:34.064Z,81.77
2023-02-08T22:30:36.908Z,79.10
2023-02-08T22:35:40.038Z,80.73
2023-02-08T22:40:43.108Z,85.87
2023-02-08T22:45:45.662Z,90.70
2023-02-08T22:50:48.060Z,94.03
2023-02-08T22:55:54.601Z,92.63
2023-02-08T23:00:57.000Z,92.83
2023-02-08T23:05:59.425Z,80.27
2023-02-08T23:11:04.183Z,71.47
2023-02-08T23:16:07.042Z,71.87
2023-02-08T23:21:13.006Z,67.60
2023-02-08T23:26:18.381Z,68.73
2023-02-08T23:31:21.135Z,68.33
2023-02-08T23:36:24.015Z,65.97
2023-02-08T23:41:26.440Z,64.63
2023-02-08T23:46:29.427Z,76.10
2023-02-08T23:51:32.559Z,65.30
2023-02-08T23:56:34.930Z,66.90
